createdAt,value
2024-02-20T00:00:34.400Z,59.39
2024-02-20T00:01:36.177Z,59.24
2024-02-20T00:02:37.854Z,59.59
2024-02-20T00:03:39.478Z,59.58
2024-02-20T00:04:41.148Z,59.67
2024-02-20T00:05:42.876Z,59.41
2024-02-20T00:06:44.988Z,59.40
2024-02-20T00:07:46.903Z,59.50
2024-02-20T00:08:48.512Z,59.48
2024-02-20T00:09:50.233Z,59.15
2024-02-20T00:10:51.941Z,59.39
2024-02-20T00:11:53.614Z,59.12
2024-02-20T00:12:55.267Z,59.17
2024-02-20T00:13:59.804Z,59.08
2024-02-20T00:15:02.901Z,59.11
2024-02-20T00:16:05.980Z,58.82
2024-02-20T00:17:08.510Z,58.84
2024-02-20T00:18:11.431Z,58.67
2024-02-20T00:19:13.313Z,58.56
2024-02-20T00:20:14.956Z,58.45
2024-02-20T00:21:16.541Z,58.38
2024-02-20T00:22:18.150Z,58.66
2024-02-20T00:23:19.756Z,58.26
2024-02-20T00:24:21.313Z,58.31
2024-02-20T00:25:23.171Z,58.21
2024-02-20T00:26:25.743Z,58.23
2024-02-20T00:27:27.846Z,58.21
2024-02-20T00:28:29.534Z,57.96
2024-02-20T00:29:31.193Z,58.02
2024-02-20T00:30:32.779Z,58.09
2024-02-20T00:31:35.711Z,57.88
2024-02-20T00:32:38.090Z,57.95
2024-02-20T00:33:39.772Z,58.14
2024-02-20T00:34:41.379Z,58.49
2024-02-20T00:35:43.231Z,58.39
2024-02-20T00:36:44.777Z,58.41
2024-02-20T00:37:46.923Z,58.50
2024-02-20T00:38:48.489Z,58.60
2024-02-20T00:39:50.141Z,58.59
2024-02-20T00:40:51.823Z,58.73
2024-02-20T00:41:53.442Z,58.72
2024-02-20T00:42:55.023Z,58.71
2024-02-20T00:43:56.619Z,58.52
2024-02-20T00:45:02.449Z,58.50
2024-02-20T00:46:04.517Z,58.48
2024-02-20T00:47:10.938Z,58.74
2024-02-20T00:48:14.033Z,58.64
2024-02-20T00:49:15.833Z,58.31
2024-02-20T00:50:17.579Z,58.17
2024-02-20T00:51:20.952Z,57.98
2024-02-20T00:52:24.635Z,57.85
2024-02-20T00:53:26.245Z,57.91
2024-02-20T00:54:27.884Z,57.64
2024-02-20T00:55:29.601Z,57.81
2024-02-20T00:56:31.945Z,57.89
2024-02-20T00:57:33.548Z,57.94
2024-02-20T00:58:35.180Z,57.97
2024-02-20T00:59:37.009Z,58.14
2024-02-20T01:00:38.820Z,58.19
2024-02-20T01:01:40.575Z,58.32
2024-02-20T01:02:42.308Z,58.25
2024-02-20T01:03:44.570Z,58.37
2024-02-20T01:04:46.288Z,58.53
2024-02-20T01:05:48.076Z,58.42
2024-02-20T01:06:49.724Z,58.38
2024-02-20T01:07:51.332Z,58.50
2024-02-20T01:08:53.004Z,58.58
2024-02-20T01:09:54.672Z,58.73
2024-02-20T01:10:56.388Z,58.61
2024-02-20T01:11:57.984Z,59.06
2024-02-20T01:13:01.473Z,59.25
2024-02-20T01:14:03.240Z,59.24
2024-02-20T01:15:05.552Z,59.19
2024-02-20T01:16:08.023Z,59.27
2024-02-20T01:17:09.611Z,59.22
2024-02-20T01:18:11.354Z,59.46
2024-02-20T01:19:13.218Z,59.34
2024-02-20T01:20:14.914Z,59.49
2024-02-20T01:21:16.593Z,59.53
2024-02-20T01:22:18.205Z,59.57
2024-02-20T01:23:20.165Z,59.66
2024-02-20T01:24:21.805Z,59.53
2024-02-20T01:25:23.539Z,59.47
2024-02-20T01:26:25.115Z,59.54
2024-02-20T01:27:26.799Z,59.50
2024-02-20T01:28:28.528Z,59.41
2024-02-20T01:29:30.426Z,59.38
2024-02-20T01:30:32.412Z,59.37
2024-02-20T01:31:34.259Z,59.35
2024-02-20T01:32:35.965Z,59.52
2024-02-20T01:33:37.624Z,59.50
2024-02-20T01:34:39.522Z,59.93
2024-02-20T01:35:42.675Z,60.38
2024-02-20T01:36:44.276Z,60.20
2024-02-20T01:37:45.868Z,60.09
2024-02-20T01:38:47.699Z,60.20
2024-02-20T01:39:49.344Z,60.38
2024-02-20T01:40:50.938Z,60.39
2024-02-20T01:41:52.465Z,60.46
2024-02-20T01:43:01.250Z,60.44
2024-02-20T01:44:02.960Z,60.44
2024-02-20T01:45:05.061Z,60.44
2024-02-20T01:46:08.566Z,60.30
2024-02-20T01:47:10.166Z,60.08
2024-02-20T01:48:12.032Z,59.63
2024-02-20T01:49:14.186Z,60.03
2024-02-20T01:50:16.267Z,60.07
2024-02-20T01:51:20.174Z,60.31
2024-02-20T01:52:21.859Z,60.51
2024-02-20T01:53:23.772Z,60.31
2024-02-20T01:54:25.690Z,60.52
2024-02-20T01:55:28.086Z,60.69
2024-02-20T01:56:30.624Z,60.54
2024-02-20T01:57:32.698Z,60.55
2024-02-20T01:58:34.833Z,60.92
2024-02-20T01:59:36.681Z,60.77
2024-02-20T02:00:38.262Z,61.03
2024-02-20T02:01:40.089Z,61.11
2024-02-20T02:02:42.964Z,61.03
2024-02-20T02:03:44.668Z,61.20
2024-02-20T02:04:46.417Z,61.45
2024-02-20T02:05:48.360Z,61.45
2024-02-20T02:06:50.181Z,61.73
2024-02-20T02:07:51.917Z,61.81
2024-02-20T02:08:53.979Z,61.71
2024-02-20T02:09:55.599Z,61.66
2024-02-20T02:10:57.433Z,61.63
2024-02-20T02:11:59.110Z,61.50
2024-02-20T02:13:00.682Z,61.36
2024-02-20T02:14:02.320Z,61.38
2024-02-20T02:15:04.253Z,61.24
2024-02-20T02:16:06.101Z,61.15
2024-02-20T02:17:08.059Z,60.98
2024-02-20T02:18:09.731Z,61.11
2024-02-20T02:19:11.390Z,61.05
2024-02-20T02:20:13.136Z,61.10
2024-02-20T02:21:14.912Z,61.03
2024-02-20T02:22:16.539Z,61.16
2024-02-20T02:23:18.148Z,61.08
2024-02-20T02:24:19.734Z,61.21
2024-02-20T02:25:21.590Z,61.13
2024-02-20T02:26:23.815Z,61.13
2024-02-20T02:27:25.425Z,60.93
2024-02-20T02:28:27.174Z,60.93
2024-02-20T02:29:29.627Z,60.89
2024-02-20T02:30:31.170Z,60.93
2024-02-20T02:31:33.171Z,60.68
2024-02-20T02:32:34.929Z,60.90
2024-02-20T02:33:37.056Z,60.92
2024-02-20T02:34:38.729Z,60.77
2024-02-20T02:35:40.655Z,60.98
2024-02-20T02:36:42.234Z,60.98
2024-02-20T02:37:43.869Z,60.92
2024-02-20T02:38:45.508Z,60.79
2024-02-20T02:39:47.423Z,60.56
2024-02-20T02:40:48.984Z,60.63
2024-02-20T02:41:51.429Z,60.57
2024-02-20T02:42:53.149Z,60.74
2024-02-20T02:43:54.824Z,60.72
2024-02-20T02:44:56.364Z,60.66
2024-02-20T02:45:58.237Z,60.64
2024-02-20T02:46:59.981Z,60.68
2024-02-20T02:48:01.626Z,60.62
2024-02-20T02:49:03.358Z,60.62
2024-02-20T02:50:05.611Z,60.50
2024-02-20T02:51:09.795Z,60.46
2024-02-20T02:52:11.600Z,60.63
2024-02-20T02:53:13.515Z,60.80
2024-02-20T02:54:15.148Z,61.11
2024-02-20T02:55:17.498Z,61.60
2024-02-20T02:56:19.105Z,61.99
2024-02-20T02:57:20.668Z,61.89
2024-02-20T02:58:22.336Z,61.96
2024-02-20T02:59:24.145Z,61.73
2024-02-20T03:00:25.774Z,61.70
2024-02-20T03:01:27.766Z,61.59
2024-02-20T03:02:29.363Z,61.30
2024-02-20T03:03:31.035Z,61.49
2024-02-20T03:04:33.065Z,61.80
2024-02-20T03:05:37.566Z,62.15
2024-02-20T03:06:41.162Z,62.43
2024-02-20T03:07:42.757Z,62.45
2024-02-20T03:08:46.547Z,62.63
2024-02-20T03:09:48.136Z,62.57
2024-02-20T03:10:49.885Z,62.63
2024-02-20T03:11:51.583Z,62.54
2024-02-20T03:12:57.028Z,62.30
2024-02-20T03:13:59.356Z,62.12
2024-02-20T03:15:00.917Z,62.92
2024-02-20T03:16:03.648Z,62.43
2024-02-20T03:17:05.430Z,62.18
2024-02-20T03:18:07.957Z,62.26
2024-02-20T03:19:10.501Z,62.08
2024-02-20T03:20:16.508Z,61.86
2024-02-20T03:21:21.324Z,61.74
2024-02-20T03:22:24.591Z,61.68
2024-02-20T03:23:28.039Z,61.60
2024-02-20T03:24:29.947Z,61.50
2024-02-20T03:25:31.588Z,61.33
2024-02-20T03:26:33.174Z,61.25
2024-02-20T03:27:36.222Z,60.87
2024-02-20T03:28:37.809Z,60.89
2024-02-20T03:29:39.519Z,60.61
2024-02-20T03:30:42.274Z,60.48
2024-02-20T03:31:44.161Z,60.09
2024-02-20T03:32:45.882Z,59.82
2024-02-20T03:33:47.599Z,59.63
2024-02-20T03:34:49.283Z,59.97
2024-02-20T03:35:51.073Z,60.55
2024-02-20T03:36:52.768Z,60.76
2024-02-20T03:37:54.396Z,60.92
2024-02-20T03:38:55.936Z,61.09
2024-02-20T03:39:57.515Z,61.17
2024-02-20T03:40:59.185Z,61.18
2024-02-20T03:42:00.736Z,61.35
2024-02-20T03:43:04.839Z,61.22
2024-02-20T03:44:06.433Z,61.29
2024-02-20T03:45:08.338Z,61.47
2024-02-20T03:46:10.463Z,61.32
2024-02-20T03:47:12.091Z,61.29
2024-02-20T03:48:13.941Z,61.20
2024-02-20T03:49:15.760Z,60.92
2024-02-20T03:50:17.618Z,61.08
2024-02-20T03:51:19.583Z,61.02
2024-02-20T03:52:21.385Z,61.10
2024-02-20T03:53:22.926Z,61.38
2024-02-20T03:54:24.529Z,61.09
2024-02-20T03:55:26.337Z,61.23
2024-02-20T03:56:27.911Z,61.01
2024-02-20T03:57:29.458Z,60.93
2024-02-20T03:58:30.992Z,60.24
2024-02-20T03:59:33.142Z,60.45
2024-02-20T04:00:34.790Z,60.42
2024-02-20T04:01:36.592Z,60.36
2024-02-20T04:02:43.302Z,60.13
2024-02-20T04:03:45.024Z,60.10
2024-02-20T04:04:46.693Z,59.83
2024-02-20T04:05:49.185Z,60.09
2024-02-20T04:06:51.641Z,60.00
2024-02-20T04:07:53.450Z,59.90
2024-02-20T04:08:55.410Z,59.84
2024-02-20T04:09:57.035Z,59.59
2024-02-20T04:10:58.891Z,59.46
2024-02-20T04:12:00.607Z,59.47
2024-02-20T04:13:02.360Z,59.50
2024-02-20T04:14:04.379Z,59.48
2024-02-20T04:15:07.479Z,59.27
2024-02-20T04:16:09.156Z,59.23
2024-02-20T04:17:10.729Z,59.24
2024-02-20T04:18:12.296Z,59.26
2024-02-20T04:19:14.116Z,59.35
2024-02-20T04:20:15.943Z,59.45
2024-02-20T04:21:17.550Z,59.72
2024-02-20T04:22:19.174Z,60.09
2024-02-20T04:23:20.798Z,60.18
2024-02-20T04:24:22.374Z,60.18
2024-02-20T04:25:24.253Z,60.27
2024-02-20T04:26:26.592Z,60.38
2024-02-20T04:27:28.958Z,60.25
2024-02-20T04:28:36.366Z,60.38
2024-02-20T04:29:38.090Z,60.20
2024-02-20T04:30:45.608Z,60.34
2024-02-20T04:31:47.290Z,60.31
2024-02-20T04:32:48.940Z,60.22
2024-02-20T04:33:50.819Z,60.28
2024-02-20T04:34:52.661Z,60.34
2024-02-20T04:35:54.266Z,60.24
2024-02-20T04:36:55.877Z,60.13
2024-02-20T04:37:57.677Z,60.17
2024-02-20T04:38:59.287Z,60.27
2024-02-20T04:40:01.004Z,60.23
2024-02-20T04:41:02.619Z,59.94
2024-02-20T04:42:04.586Z,59.90
2024-02-20T04:43:07.430Z,59.94
2024-02-20T04:44:09.440Z,60.10
2024-02-20T04:45:11.504Z,60.58
2024-02-20T04:46:13.082Z,60.91
2024-02-20T04:47:14.752Z,61.26
2024-02-20T04:48:16.493Z,61.52
2024-02-20T04:49:18.342Z,61.61
2024-02-20T04:50:19.972Z,61.55
2024-02-20T04:51:21.576Z,61.69
2024-02-20T04:52:23.210Z,61.42
2024-02-20T04:53:25.516Z,61.52
2024-02-20T04:54:28.026Z,61.64
2024-02-20T04:55:30.134Z,62.45
2024-02-20T04:56:31.747Z,62.46
2024-02-20T04:57:33.341Z,62.66
2024-02-20T04:58:35.546Z,63.10
2024-02-20T04:59:37.305Z,63.22
2024-02-20T05:00:38.948Z,63.49
2024-02-20T05:01:40.652Z,63.56
2024-02-20T05:02:43.423Z,63.79
2024-02-20T05:03:47.152Z,63.61
2024-02-20T05:04:48.788Z,63.73
2024-02-20T05:05:50.365Z,63.69
2024-02-20T05:06:52.021Z,63.60
2024-02-20T05:07:53.692Z,63.51
2024-02-20T05:08:55.466Z,63.56
2024-02-20T05:09:57.084Z,63.36
2024-02-20T05:10:58.768Z,63.44
2024-02-20T05:12:00.954Z,63.43
2024-02-20T05:13:04.556Z,63.36
2024-02-20T05:14:06.167Z,63.10
2024-02-20T05:15:08.588Z,62.90
2024-02-20T05:16:10.424Z,62.70
2024-02-20T05:17:12.106Z,62.80
2024-02-20T05:18:13.864Z,62.50
2024-02-20T05:19:15.586Z,62.29
2024-02-20T05:20:17.827Z,62.29
2024-02-20T05:21:19.437Z,62.33
2024-02-20T05:22:21.357Z,62.05
2024-02-20T05:23:23.311Z,61.69
2024-02-20T05:24:24.916Z,61.91
2024-02-20T05:25:26.564Z,61.81
2024-02-20T05:26:28.156Z,61.89
2024-02-20T05:27:29.739Z,61.73
2024-02-20T05:28:31.438Z,61.67
2024-02-20T05:29:33.112Z,61.77
2024-02-20T05:30:37.242Z,61.55
2024-02-20T05:31:38.907Z,61.60
2024-02-20T05:32:40.666Z,61.39
2024-02-20T05:33:42.383Z,61.21
2024-02-20T05:34:44.337Z,61.22
2024-02-20T05:35:46.329Z,61.21
2024-02-20T05:36:47.956Z,61.57
2024-02-20T05:37:49.642Z,61.35
2024-02-20T05:38:51.350Z,61.45
2024-02-20T05:39:52.990Z,61.40
2024-02-20T05:40:56.168Z,61.35
2024-02-20T05:41:58.016Z,61.46
2024-02-20T05:42:59.631Z,61.46
2024-02-20T05:44:02.060Z,61.41
2024-02-20T05:45:03.953Z,61.25
2024-02-20T05:46:05.595Z,61.17
2024-02-20T05:47:07.263Z,60.89
2024-02-20T05:48:09.169Z,60.86
2024-02-20T05:49:11.014Z,60.84
2024-02-20T05:50:12.988Z,61.04
2024-02-20T05:51:16.776Z,61.03
2024-02-20T05:52:18.845Z,61.22
2024-02-20T05:53:20.461Z,61.55
2024-02-20T05:54:22.263Z,62.16
2024-02-20T05:55:23.985Z,62.17
2024-02-20T05:56:26.038Z,62.41
2024-02-20T05:57:27.621Z,62.61
2024-02-20T05:58:29.183Z,62.66
2024-02-20T05:59:31.610Z,62.62
2024-02-20T06:00:33.335Z,62.52
2024-02-20T06:01:35.134Z,62.59
2024-02-20T06:02:36.782Z,62.53
2024-02-20T06:03:39.238Z,62.36
2024-02-20T06:04:41.032Z,62.33
2024-02-20T06:05:42.803Z,62.33
2024-02-20T06:06:44.644Z,62.49
2024-02-20T06:07:46.290Z,62.59
2024-02-20T06:08:48.103Z,62.45
2024-02-20T06:09:49.996Z,62.46
2024-02-20T06:10:51.871Z,62.31
2024-02-20T06:11:53.533Z,62.30
2024-02-20T06:12:55.149Z,62.25
2024-02-20T06:13:56.824Z,62.17
2024-02-20T06:14:58.450Z,62.08
2024-02-20T06:16:00.087Z,61.99
2024-02-20T06:17:01.660Z,62.03
2024-02-20T06:18:03.422Z,61.79
2024-02-20T06:19:05.138Z,61.87
2024-02-20T06:20:08.680Z,61.49
2024-02-20T06:21:10.575Z,61.29
2024-02-20T06:22:12.149Z,61.30
2024-02-20T06:23:14.238Z,61.35
2024-02-20T06:24:15.883Z,61.17
2024-02-20T06:25:17.753Z,61.13
2024-02-20T06:26:20.057Z,60.97
2024-02-20T06:27:21.880Z,61.00
2024-02-20T06:28:23.695Z,60.90
2024-02-20T06:29:25.733Z,60.64
2024-02-20T06:30:27.343Z,60.56
2024-02-20T06:31:28.945Z,60.37
2024-02-20T06:32:33.342Z,60.53
2024-02-20T06:33:37.023Z,60.29
2024-02-20T06:34:40.436Z,60.38
2024-02-20T06:35:43.058Z,60.28
2024-02-20T06:36:44.716Z,60.32
2024-02-20T06:37:46.258Z,60.32
2024-02-20T06:38:47.837Z,60.33
2024-02-20T06:39:51.187Z,60.26
2024-02-20T06:40:53.812Z,60.43
2024-02-20T06:41:55.427Z,60.36
2024-02-20T06:42:56.966Z,60.69
2024-02-20T06:43:58.561Z,60.77
2024-02-20T06:45:00.674Z,60.80
2024-02-20T06:46:02.863Z,60.93
2024-02-20T06:47:04.842Z,60.78
2024-02-20T06:48:06.746Z,60.74
2024-02-20T06:49:08.540Z,60.81
2024-02-20T06:50:14.094Z,60.51
2024-02-20T06:51:15.907Z,60.48
2024-02-20T06:52:17.627Z,60.46
2024-02-20T06:53:19.206Z,60.20
2024-02-20T06:54:20.816Z,60.40
2024-02-20T06:55:22.522Z,60.54
2024-02-20T06:56:24.302Z,60.29
2024-02-20T06:57:25.858Z,60.33
2024-02-20T06:58:28.965Z,60.29
2024-02-20T06:59:30.755Z,60.24
2024-02-20T07:00:32.503Z,60.33
2024-02-20T07:01:34.429Z,60.26
2024-02-20T07:02:36.108Z,60.16
2024-02-20T07:03:37.751Z,60.07
2024-02-20T07:04:41.704Z,60.37
2024-02-20T07:05:43.828Z,60.27
2024-02-20T07:06:45.670Z,60.39
2024-02-20T07:07:47.387Z,60.38
2024-02-20T07:08:48.993Z,60.15
2024-02-20T07:09:50.537Z,60.10
2024-02-20T07:10:52.532Z,59.82
2024-02-20T07:11:54.341Z,59.68
2024-02-20T07:12:58.867Z,59.50
2024-02-20T07:14:00.507Z,59.94
2024-02-20T07:15:03.598Z,60.25
2024-02-20T07:16:06.585Z,60.29
2024-02-20T07:17:08.185Z,60.73
2024-02-20T07:18:09.763Z,60.51
2024-02-20T07:19:12.159Z,62.85
2024-02-20T07:20:14.340Z,61.65
2024-02-20T07:21:16.117Z,61.47
2024-02-20T07:22:17.714Z,60.84
2024-02-20T07:23:19.404Z,60.54
2024-02-20T07:24:21.668Z,60.48
2024-02-20T07:25:24.161Z,60.36
2024-02-20T07:26:28.320Z,60.12
2024-02-20T07:27:29.958Z,60.45
2024-02-20T07:28:32.484Z,60.62
2024-02-20T07:29:34.176Z,60.91
2024-02-20T07:30:35.787Z,61.28
2024-02-20T07:31:37.780Z,61.32
2024-02-20T07:32:41.315Z,61.28
2024-02-20T07:33:48.424Z,60.98
2024-02-20T07:34:52.670Z,60.92
2024-02-20T07:35:54.481Z,60.63
2024-02-20T07:36:56.192Z,60.60
2024-02-20T07:37:57.978Z,60.43
2024-02-20T07:38:59.572Z,60.24
2024-02-20T07:40:01.315Z,60.24
2024-02-20T07:41:04.674Z,59.80
2024-02-20T07:42:08.576Z,59.39
2024-02-20T07:43:10.241Z,59.53
2024-02-20T07:44:11.997Z,59.13
2024-02-20T07:45:13.805Z,59.17
2024-02-20T07:46:15.893Z,59.39
2024-02-20T07:47:17.495Z,59.61
2024-02-20T07:48:19.230Z,59.81
2024-02-20T07:49:21.270Z,60.05
2024-02-20T07:50:26.550Z,59.85
2024-02-20T07:51:29.334Z,59.81
2024-02-20T07:52:31.135Z,59.57
2024-02-20T07:53:32.907Z,59.75
2024-02-20T07:54:34.435Z,59.58
2024-02-20T07:55:41.457Z,59.55
2024-02-20T07:56:43.872Z,59.18
2024-02-20T07:57:45.489Z,58.98
2024-02-20T07:58:47.099Z,59.14
2024-02-20T07:59:48.939Z,59.01
2024-02-20T08:00:50.722Z,58.95
2024-02-20T08:01:53.988Z,58.63
2024-02-20T08:02:55.826Z,58.75
2024-02-20T08:03:58.214Z,58.91
2024-02-20T08:05:00.061Z,58.17
2024-02-20T08:06:01.729Z,58.19
2024-02-20T08:07:03.951Z,58.20
2024-02-20T08:08:06.660Z,58.08
2024-02-20T08:09:08.437Z,57.83
2024-02-20T08:10:13.197Z,57.99
2024-02-20T08:11:15.621Z,58.04
2024-02-20T08:12:17.859Z,57.98
2024-02-20T08:13:23.137Z,57.29
2024-02-20T08:14:26.925Z,57.40
2024-02-20T08:15:29.079Z,57.34
2024-02-20T08:16:32.781Z,56.69
2024-02-20T08:17:34.779Z,55.89
2024-02-20T08:18:36.414Z,55.89
2024-02-20T08:19:38.244Z,55.99
2024-02-20T08:20:39.886Z,55.94
2024-02-20T08:21:41.492Z,55.68
2024-02-20T08:22:44.086Z,55.76
2024-02-20T08:23:45.887Z,55.37
2024-02-20T08:24:47.521Z,55.08
2024-02-20T08:25:49.139Z,54.65
2024-02-20T08:26:51.171Z,54.91
2024-02-20T08:27:52.796Z,54.20
2024-02-20T08:28:54.863Z,54.02
2024-02-20T08:29:56.583Z,54.09
2024-02-20T08:30:58.735Z,54.22
2024-02-20T08:32:00.342Z,53.51
2024-02-20T08:33:01.996Z,53.30
2024-02-20T08:34:03.775Z,53.43
2024-02-20T08:35:06.252Z,52.85
2024-02-20T08:36:08.122Z,52.52
2024-02-20T08:37:09.913Z,52.41
2024-02-20T08:38:11.493Z,53.33
2024-02-20T08:39:13.366Z,53.08
2024-02-20T08:40:15.197Z,52.84
2024-02-20T08:41:16.809Z,52.69
2024-02-20T08:42:19.388Z,53.17
2024-02-20T08:43:21.186Z,53.07
2024-02-20T08:44:25.142Z,52.97
2024-02-20T08:45:26.774Z,52.99
2024-02-20T08:46:28.478Z,52.78
2024-02-20T08:47:30.309Z,52.07
2024-02-20T08:48:32.020Z,51.95
2024-02-20T08:49:33.861Z,51.76
2024-02-20T08:50:35.580Z,51.67
2024-02-20T08:51:37.193Z,51.77
2024-02-20T08:52:38.947Z,51.60
2024-02-20T08:53:40.581Z,52.11
2024-02-20T08:54:42.133Z,52.07
2024-02-20T08:55:43.923Z,51.98
2024-02-20T08:56:45.583Z,51.83
2024-02-20T08:57:47.277Z,52.09
2024-02-20T08:58:55.268Z,51.96
2024-02-20T08:59:56.809Z,52.54
2024-02-20T09:01:00.007Z,52.70
2024-02-20T09:02:04.963Z,52.63
2024-02-20T09:03:06.897Z,52.14
2024-02-20T09:04:09.729Z,52.07
2024-02-20T09:05:11.981Z,53.02
2024-02-20T09:06:13.890Z,52.74
2024-02-20T09:07:15.616Z,53.45
2024-02-20T09:08:17.271Z,52.72
2024-02-20T09:09:19.361Z,52.28
2024-02-20T09:10:21.210Z,51.97
2024-02-20T09:11:22.851Z,51.95
2024-02-20T09:12:24.489Z,52.34
2024-02-20T09:13:26.056Z,51.95
2024-02-20T09:14:27.700Z,51.35
2024-02-20T09:15:29.322Z,51.50
2024-02-20T09:16:31.023Z,51.75
2024-02-20T09:17:32.797Z,51.75
2024-02-20T09:18:35.617Z,51.51
2024-02-20T09:19:37.319Z,50.64
2024-02-20T09:20:39.015Z,49.78
2024-02-20T09:21:41.294Z,50.26
2024-02-20T09:22:43.061Z,50.41
2024-02-20T09:23:45.057Z,50.65
2024-02-20T09:24:46.841Z,50.74
2024-02-20T09:25:48.450Z,50.35
2024-02-20T09:26:50.135Z,50.77
2024-02-20T09:27:51.770Z,50.44
2024-02-20T09:28:53.482Z,50.90
2024-02-20T09:29:55.228Z,51.24
2024-02-20T09:30:56.928Z,50.91
2024-02-20T09:32:02.077Z,51.32
2024-02-20T09:33:04.426Z,51.52
2024-02-20T09:34:06.095Z,52.05
2024-02-20T09:35:08.669Z,51.93
2024-02-20T09:36:10.994Z,51.22
2024-02-20T09:37:12.695Z,51.22
2024-02-20T09:38:17.259Z,51.43
2024-02-20T09:39:22.883Z,52.10
2024-02-20T09:40:24.580Z,52.18
2024-02-20T09:41:27.674Z,52.26
2024-02-20T09:42:31.630Z,51.87
2024-02-20T09:43:34.112Z,51.88
2024-02-20T09:44:40.463Z,51.56
2024-02-20T09:45:43.536Z,51.79
2024-02-20T09:46:52.701Z,51.88
2024-02-20T09:47:56.492Z,51.69
2024-02-20T09:49:01.416Z,51.63
2024-02-20T09:50:03.682Z,51.66
2024-02-20T09:51:06.805Z,50.71
2024-02-20T09:52:09.540Z,49.94
2024-02-20T09:53:14.348Z,49.76
2024-02-20T09:54:18.118Z,50.31
2024-02-20T09:55:20.083Z,50.33
2024-02-20T09:56:22.581Z,50.47
2024-02-20T09:57:25.064Z,50.47
2024-02-20T09:58:29.905Z,50.30
2024-02-20T09:59:36.235Z,49.87
2024-02-20T10:00:37.955Z,50.26
2024-02-20T10:01:40.083Z,50.72
2024-02-20T10:02:45.557Z,50.39
2024-02-20T10:03:49.116Z,50.23
2024-02-20T10:04:51.289Z,48.96
2024-02-20T10:05:53.969Z,48.74
2024-02-20T10:06:55.787Z,49.26
2024-02-20T10:08:02.108Z,49.56
2024-02-20T10:09:04.160Z,49.40
2024-02-20T10:10:10.452Z,49.98
2024-02-20T10:11:12.200Z,49.82
2024-02-20T10:12:24.740Z,49.56
2024-02-20T10:13:26.586Z,48.91
2024-02-20T10:14:29.002Z,48.16
2024-02-20T10:15:30.804Z,48.38
2024-02-20T10:16:32.526Z,48.53
2024-02-20T10:17:35.073Z,48.74
2024-02-20T10:18:36.686Z,48.40
2024-02-20T10:19:38.374Z,47.17
2024-02-20T10:20:40.312Z,46.38
2024-02-20T10:21:51.710Z,47.17
2024-02-20T10:23:04.037Z,47.35
2024-02-20T10:24:11.966Z,47.22
2024-02-20T10:25:19.425Z,48.01
2024-02-20T10:26:21.022Z,47.72
2024-02-20T10:27:22.711Z,47.66
2024-02-20T10:28:25.397Z,47.18
2024-02-20T10:29:29.422Z,47.45
2024-02-20T10:30:31.661Z,47.01
2024-02-20T10:31:34.229Z,48.35
2024-02-20T10:32:37.723Z,47.07
2024-02-20T10:33:39.524Z,46.91
2024-02-20T10:34:41.425Z,46.52
2024-02-20T10:35:44.334Z,45.98
2024-02-20T10:36:46.168Z,45.82
2024-02-20T10:38:01.939Z,46.06
2024-02-20T10:39:07.963Z,45.78
2024-02-20T10:40:21.926Z,46.04
2024-02-20T10:41:29.151Z,46.78
2024-02-20T10:42:38.193Z,46.73
2024-02-20T10:43:40.841Z,46.97
2024-02-20T10:44:44.128Z,46.60
2024-02-20T10:45:52.290Z,46.51
2024-02-20T10:46:58.335Z,47.12
2024-02-20T10:48:04.089Z,46.72
2024-02-20T10:49:28.770Z,44.89
2024-02-20T10:50:34.492Z,44.16
2024-02-20T10:51:37.896Z,43.80
2024-02-20T10:52:40.789Z,42.13
2024-02-20T10:53:45.686Z,39.87
2024-02-20T10:54:56.295Z,38.87
2024-02-20T10:56:05.887Z,38.80
2024-02-20T10:57:08.530Z,38.54
2024-02-20T10:58:17.719Z,38.91
2024-02-20T10:59:22.079Z,38.86
2024-02-20T11:00:24.279Z,38.70
2024-02-20T11:01:27.724Z,38.46
2024-02-20T11:02:29.883Z,37.79
2024-02-20T11:03:41.360Z,37.28
2024-02-20T11:04:48.089Z,36.57
2024-02-20T11:05:53.336Z,37.24
2024-02-20T11:06:56.390Z,37.33
2024-02-20T11:08:09.188Z,36.34
2024-02-20T11:09:12.411Z,35.98
2024-02-20T11:10:19.216Z,37.45
2024-02-20T11:11:25.090Z,36.92
2024-02-20T11:12:35.393Z,36.11
2024-02-20T11:13:38.003Z,36.61
2024-02-20T11:14:39.658Z,36.63
2024-02-20T11:15:41.298Z,35.85
2024-02-20T11:16:50.705Z,35.27
2024-02-20T11:17:53.819Z,35.38
2024-02-20T11:18:55.866Z,35.64
2024-02-20T11:20:07.941Z,35.72
2024-02-20T11:21:09.503Z,35.40
2024-02-20T11:22:11.115Z,35.92
2024-02-20T11:23:13.305Z,36.57
2024-02-20T11:24:19.302Z,35.94
2024-02-20T11:25:21.736Z,35.63
2024-02-20T11:26:31.786Z,35.82
2024-02-20T11:27:44.357Z,35.86
2024-02-20T11:28:46.406Z,36.07
2024-02-20T11:29:48.074Z,36.62
2024-02-20T11:30:49.773Z,36.04
2024-02-20T11:31:51.488Z,36.09
2024-02-20T11:32:55.793Z,35.48
2024-02-20T11:33:59.220Z,34.65
2024-02-20T11:35:01.102Z,34.08
2024-02-20T11:36:05.917Z,34.22
2024-02-20T11:37:10.463Z,34.35
2024-02-20T11:38:14.375Z,33.97
2024-02-20T11:39:17.824Z,33.96
2024-02-20T11:40:30.579Z,33.89
2024-02-20T11:41:35.230Z,33.80
2024-02-20T11:42:39.285Z,34.54
2024-02-20T11:43:42.456Z,34.54
2024-02-20T11:44:44.188Z,34.07
2024-02-20T11:45:45.916Z,33.88
2024-02-20T11:46:56.963Z,34.16
2024-02-20T11:48:07.054Z,33.16
2024-02-20T11:49:08.856Z,33.25
2024-02-20T11:50:12.399Z,33.64
2024-02-20T11:51:18.671Z,32.98
2024-02-20T11:52:20.476Z,33.39
2024-02-20T11:53:22.485Z,33.84
2024-02-20T11:54:24.042Z,34.25
2024-02-20T11:55:26.530Z,34.08
2024-02-20T11:56:29.273Z,34.26
2024-02-20T11:57:30.923Z,34.55
2024-02-20T11:58:32.590Z,34.26
2024-02-20T11:59:34.352Z,34.08
2024-02-20T12:00:39.877Z,34.30
2024-02-20T12:01:41.762Z,34.50
2024-02-20T12:02:43.692Z,34.57
2024-02-20T12:03:45.667Z,34.67
2024-02-20T12:04:57.606Z,34.79
2024-02-20T12:06:04.450Z,34.75
2024-02-20T12:07:10.879Z,34.74
2024-02-20T12:08:17.664Z,35.42
2024-02-20T12:09:19.535Z,34.96
2024-02-20T12:10:22.224Z,35.05
2024-02-20T12:11:28.789Z,34.83
2024-02-20T12:12:31.572Z,34.36
2024-02-20T12:13:33.415Z,34.31
2024-02-20T12:14:35.053Z,33.77
2024-02-20T12:15:40.286Z,34.00
2024-02-20T12:16:41.956Z,34.11
2024-02-20T12:17:45.738Z,34.33
2024-02-20T12:18:51.705Z,33.28
2024-02-20T12:20:05.260Z,34.19
2024-02-20T12:21:08.713Z,33.47
2024-02-20T12:22:10.951Z,33.81
2024-02-20T12:23:19.772Z,34.14
2024-02-20T12:24:24.565Z,33.96
2024-02-20T12:25:26.332Z,33.97
2024-02-20T12:26:28.688Z,33.64
2024-02-20T12:27:30.408Z,33.94
2024-02-20T12:28:32.282Z,34.16
2024-02-20T12:29:36.047Z,34.13
2024-02-20T12:30:41.540Z,34.74
2024-02-20T12:31:43.198Z,34.29
2024-02-20T12:32:44.928Z,33.71
2024-02-20T12:33:46.769Z,33.49
2024-02-20T12:34:52.443Z,32.98
2024-02-20T12:35:58.802Z,32.99
2024-02-20T12:37:00.656Z,33.39
2024-02-20T12:38:02.246Z,33.12
2024-02-20T12:39:03.866Z,32.82
2024-02-20T12:40:10.090Z,32.57
2024-02-20T12:41:12.054Z,33.07
2024-02-20T12:42:14.038Z,32.43
2024-02-20T12:43:15.596Z,32.38
2024-02-20T12:44:17.124Z,32.52
2024-02-20T12:45:18.724Z,32.12
2024-02-20T12:46:20.576Z,32.05
2024-02-20T12:47:22.213Z,32.20
2024-02-20T12:48:24.039Z,32.30
2024-02-20T12:49:25.838Z,31.86
2024-02-20T12:50:27.513Z,31.28
2024-02-20T12:51:30.130Z,31.13
2024-02-20T12:52:31.864Z,30.85
2024-02-20T12:53:35.290Z,31.06
2024-02-20T12:54:38.823Z,31.38
2024-02-20T12:55:42.094Z,30.84
2024-02-20T12:56:44.402Z,30.81
2024-02-20T12:57:45.991Z,30.93
2024-02-20T12:58:48.072Z,30.86
2024-02-20T12:59:49.884Z,30.81
2024-02-20T13:00:51.502Z,30.68
2024-02-20T13:01:53.156Z,31.16
2024-02-20T13:02:58.835Z,30.74
2024-02-20T13:04:00.689Z,30.34
2024-02-20T13:05:02.566Z,30.06
2024-02-20T13:06:04.664Z,30.74
2024-02-20T13:07:06.340Z,30.61
2024-02-20T13:08:08.994Z,30.80
2024-02-20T13:09:11.725Z,30.98
2024-02-20T13:10:14.157Z,30.43
2024-02-20T13:11:18.618Z,30.72
2024-02-20T13:12:20.301Z,31.00
2024-02-20T13:13:21.883Z,30.61
2024-02-20T13:14:23.515Z,29.72
2024-02-20T13:15:25.498Z,30.14
2024-02-20T13:16:27.202Z,30.60
2024-02-20T13:17:28.865Z,31.24
2024-02-20T13:18:30.641Z,30.04
2024-02-20T13:19:32.504Z,29.95
2024-02-20T13:20:34.459Z,29.98
2024-02-20T13:21:39.675Z,30.18
2024-02-20T13:22:41.356Z,29.47
2024-02-20T13:23:43.538Z,29.49
2024-02-20T13:24:45.229Z,29.55
2024-02-20T13:25:48.310Z,30.00
2024-02-20T13:26:54.441Z,30.18